MMLP/LAP METAR and TAF weather

Enter ICAO airport designator
Station Type Date Time Source
MMLP METAR 2019/12/12 16:44 UTC NOAA

MMLP 121644Z 01015KT 10SM FEW035 23/15 A3014 RMK 8/100 HZY


Station Type Date Time Source
MMLP Decoded METAR 2019/12/12 16:44 UTC NOAA

La Paz International Airport, Mexico (MMLP) 24-04N 110-22W
Dec 12, 2019 - 11:44 AM EST / 2019.12.12 1644 UTC
Wind: from the N (010 degrees) at 17 MPH (15 KT):0
Visibility: 10 mile(s):0
Sky conditions: mostly clear
Temperature: 73 F (23 C)
Dew Point: 59 F (15 C)
Relative Humidity: 60%
Pressure (altimeter): 30.14 in. Hg (1020 hPa)
ob: MMLP 121644Z 01015KT 10SM FEW035 23/15 A3014 RMK 8/100 HZY
cycle: 16

Station Type Date Time Source
MMLP TAF 2019/12/12 18:43 UTC NOAA

TAF MMLP 121641Z 1218/1318 34010KT P6SM SCT030
FM130300 20010KT P6SM SCT250

Example: see airport list